Time;durP1;ratioP1;P1;durP2;ratioP2;P2;SDS_P1;SDS_P2;PMS_P1;PMS_P2;Temp;Humidity;BMP_temperature;BMP_pressure;BME280_temperature;BME280_humidity;BME280_pressure;Samples;Min_cycle;Max_cycle;Signal;HPM_P1;HPM_P2
2023/06/02 08:57:00;;;;;;;10.10;2.78;;;;;;;12.69;61.72;102009.38;5069759;28;20382;-73
2023/06/02 08:59:25;;;;;;;7.55;2.28;;;;;;;12.83;61.10;102013.75;5067534;28;20039;-79
2023/06/02 09:01:52;;;;;;;12.38;3.70;;;;;;;13.06;61.84;102017.91;5067655;28;20115;-76
2023/06/02 09:04:17;;;;;;;13.70;4.32;;;;;;;13.18;59.93;102004.47;5069694;28;20476;-75
2023/06/02 09:06:43;;;;;;;13.98;3.80;;;;;;;13.19;60.66;102006.97;5068866;28;20128;-80
2023/06/02 09:09:09;;;;;;;13.93;3.70;;;;;;;13.18;59.27;102004.47;5068518;28;20064;-74
2023/06/02 09:11:35;;;;;;;18.25;4.10;;;;;;;13.25;60.36;102010.72;5066804;28;20476;-81
2023/06/02 09:14:16;;;;;;;16.15;3.75;;;;;;;13.38;60.19;102009.88;5068590;28;20037;-76
2023/06/02 09:16:42;;;;;;;15.20;3.97;;;;;;;13.33;58.18;102017.78;5069776;28;20132;-78
2023/06/02 09:19:07;;;;;;;16.75;3.60;;;;;;;13.34;58.45;102009.44;5067146;28;20510;-74
2023/06/02 09:21:33;;;;;;;16.75;4.40;;;;;;;13.27;58.37;102008.59;5049457;28;20040;-76
2023/06/02 09:24:00;;;;;;;21.60;4.50;;;;;;;13.32;59.09;102016.16;5047847;28;20090;-74
2023/06/02 09:26:27;;;;;;;12.48;4.20;;;;;;;13.28;58.33;102008.38;5050379;28;20439;-80
2023/06/02 09:29:19;;;;;;;15.40;4.20;;;;;;;13.37;59.76;102005.47;5047579;28;20380;-76
2023/06/02 09:31:51;;;;;;;16.60;4.20;;;;;;;13.38;59.92;102001.72;5058827;28;20452;-75
2023/06/02 09:34:17;;;;;;;13.07;4.03;;;;;;;13.50;59.80;102001.84;5059613;28;20124;-73
2023/06/02 09:36:46;;;;;;;14.77;3.97;;;;;;;13.55;58.80;102007.50;5069394;28;20083;-78
2023/06/02 09:39:11;;;;;;;16.70;3.80;;;;;;;13.44;58.29;102003.56;5060620;28;20376;-75
2023/06/02 09:41:38;;;;;;;16.50;4.07;;;;;;;13.43;59.06;102001.91;5063540;28;20472;-77
2023/06/02 09:44:14;;;;;;;18.02;3.85;;;;;;;13.49;59.24;102003.75;5057365;28;20029;-75
2023/06/02 09:46:41;;;;;;;13.60;3.50;;;;;;;13.70;59.44;101999.06;5049114;28;20079;-75
2023/06/02 09:49:07;;;;;;;16.05;4.57;;;;;;;13.81;59.30;101998.34;5056829;28;20029;-78
2023/06/02 09:51:33;;;;;;;13.23;4.05;;;;;;;13.85;58.78;101991.41;5068691;28;20060;-78
2023/06/02 09:53:58;;;;;;;15.90;3.63;;;;;;;13.90;57.98;101994.31;5068801;28;20052;-79
2023/06/02 09:56:29;;;;;;;17.15;4.40;;;;;;;13.97;59.65;101991.56;5068885;28;20380;-78
2023/06/02 09:58:54;;;;;;;15.40;4.20;;;;;;;14.14;58.88;101989.13;5049032;28;20029;-76
2023/06/02 10:01:20;;;;;;;18.40;4.22;;;;;;;14.07;57.79;101983.75;5059383;28;20464;-76
2023/06/02 10:03:45;;;;;;;14.30;3.67;;;;;;;14.20;57.50;101985.53;5068364;28;20466;-74
2023/06/02 10:06:25;;;;;;;14.50;4.10;;;;;;;14.30;57.73;101990.50;5051347;28;20032;-75
2023/06/02 10:09:09;;;;;;;14.43;4.18;;;;;;;14.24;57.40;101989.47;5035317;28;20025;-75
2023/06/02 10:11:34;;;;;;;14.70;4.22;;;;;;;14.27;58.05;101982.75;5036959;28;20040;-80
2023/06/02 10:14:42;;;;;;;17.87;4.43;;;;;;;14.34;58.51;101992.53;5053090;28;20039;-78
2023/06/02 10:17:10;;;;;;;17.98;4.30;;;;;;;14.12;58.11;101983.09;5054394;28;20278;-73
2023/06/02 10:20:04;;;;;;;15.07;4.18;;;;;;;14.14;59.23;101980.97;5046506;28;20065;-78
2023/06/02 10:22:48;;;;;;;14.85;3.88;;;;;;;14.24;58.34;101975.03;5033695;28;20034;-77
2023/06/02 10:25:31;;;;;;;17.58;4.57;;;;;;;14.24;58.54;101986.75;5050594;28;20461;-80
2023/06/02 10:27:57;;;;;;;22.35;4.85;;;;;;;14.16;58.50;101978.84;5035273;28;20033;-78
2023/06/02 10:30:24;;;;;;;14.85;3.97;;;;;;;14.33;59.08;101985.41;5035262;28;20120;-81
2023/06/02 10:32:50;;;;;;;12.45;4.03;;;;;;;14.58;58.56;101995.44;5042572;28;20033;-75
2023/06/02 10:35:16;;;;;;;14.50;4.07;;;;;;;14.56;57.69;101989.41;5052750;28;20166;-75
2023/06/02 10:37:43;;;;;;;13.02;3.80;;;;;;;14.56;57.19;101989.41;5053413;28;20125;-81
2023/06/02 10:40:10;;;;;;;11.90;4.18;;;;;;;14.63;57.33;101976.59;5055082;28;20029;-79
2023/06/02 10:42:37;;;;;;;10.70;3.78;;;;;;;14.73;57.16;101986.13;5053225;28;20063;-79
2023/06/02 10:45:17;;;;;;;11.07;3.95;;;;;;;14.89;57.65;101983.66;5049238;28;20086;-78
2023/06/02 10:47:45;;;;;;;13.63;3.85;;;;;;;15.20;57.45;101970.94;5035401;28;20041;-72
2023/06/02 10:50:11;;;;;;;12.02;4.25;;;;;;;15.38;56.43;101969.25;5043680;28;20472;-76
2023/06/02 10:52:58;;;;;;;14.90;3.97;;;;;;;15.54;57.01;101973.25;5053840;28;20108;-72
2023/06/02 10:55:24;;;;;;;17.10;4.13;;;;;;;15.57;55.71;101973.59;5040503;28;20045;-74
2023/06/02 10:58:12;;;;;;;11.20;3.70;;;;;;;15.58;56.49;101977.19;5040872;28;20036;-72
2023/06/02 11:00:45;;;;;;;15.93;4.57;;;;;;;15.50;56.67;101983.75;5040553;28;20032;-77
2023/06/02 11:03:37;;;;;;;12.88;4.07;;;;;;;15.40;56.09;101984.31;5054660;28;20031;-75
2023/06/02 11:06:17;;;;;;;11.25;3.83;;;;;;;15.60;57.01;101978.59;5034234;28;20132;-74
2023/06/02 11:08:44;;;;;;;15.10;3.83;;;;;;;15.73;55.98;101972.13;5040205;28;20037;-74
2023/06/02 11:11:10;;;;;;;11.23;3.22;;;;;;;15.86;57.08;101967.56;5047726;28;20025;-77
2023/06/02 11:13:59;;;;;;;13.50;3.83;;;;;;;16.19;56.69;101963.47;5045042;28;20514;-78
2023/06/02 11:16:28;;;;;;;16.23;4.15;;;;;;;16.22;55.46;101963.84;5049624;28;20465;-76
2023/06/02 11:18:55;;;;;;;11.35;4.18;;;;;;;16.26;55.37;101969.63;5039231;28;20489;-76
2023/06/02 11:21:25;;;;;;;15.25;4.05;;;;;;;16.19;54.87;101979.88;5052635;28;20029;-78
2023/06/02 11:23:51;;;;;;;11.75;4.35;;;;;;;16.12;55.04;101958.97;5052478;28;20449;-78
2023/06/02 11:26:18;;;;;;;14.68;4.13;;;;;;;16.46;55.53;101966.59;5041404;28;20076;-78
2023/06/02 11:28:44;;;;;;;16.92;4.20;;;;;;;16.63;56.35;101966.69;5034549;28;20191;-75
2023/06/02 11:31:19;;;;;;;10.63;3.75;;;;;;;16.63;54.85;101967.53;5033501;28;20112;-71
2023/06/02 11:33:50;;;;;;;11.43;3.88;;;;;;;16.52;54.15;101978.47;5032107;28;20029;-71
2023/06/02 11:36:24;;;;;;;14.77;4.43;;;;;;;16.61;54.33;101982.50;5033776;28;20087;-76
2023/06/02 11:38:49;;;;;;;14.32;4.65;;;;;;;16.48;53.88;101972.63;5033491;28;20461;-76
2023/06/02 11:41:17;;;;;;;16.23;4.00;;;;;;;16.44;54.38;101963.25;5034401;28;20034;-76
2023/06/02 11:43:48;;;;;;;15.10;4.60;;;;;;;16.47;54.78;101973.69;5039463;28;20123;-72
2023/06/02 11:46:16;;;;;;;15.30;3.78;;;;;;;16.65;55.10;101975.47;5053500;28;20068;-76
2023/06/02 11:48:43;;;;;;;14.93;4.40;;;;;;;16.88;54.05;101977.41;5051809;28;20111;-75
2023/06/02 11:51:10;;;;;;;19.10;4.45;;;;;;;16.94;53.78;101970.97;5053059;28;20060;-75
2023/06/02 11:53:44;;;;;;;14.02;4.22;;;;;;;17.15;54.28;101968.66;5052868;28;20094;-74
2023/06/02 11:56:10;;;;;;;12.60;4.22;;;;;;;17.22;54.13;101957.59;5036898;28;20045;-74
2023/06/02 11:58:43;;;;;;;17.05;4.22;;;;;;;17.43;53.65;101965.13;5032315;28;20037;-74
2023/06/02 12:01:12;;;;;;;17.58;4.45;;;;;;;17.65;53.55;101964.47;5029628;28;20021;-72
2023/06/02 12:03:38;;;;;;;21.67;4.72;;;;;;;17.51;52.46;101956.53;5033053;28;20060;-75
2023/06/02 12:06:13;;;;;;;15.60;3.70;;;;;;;17.29;53.81;101961.03;5045931;28;20060;-74
2023/06/02 12:08:38;;;;;;;14.02;4.50;;;;;;;17.17;53.63;101961.06;5042312;28;20031;-72
2023/06/02 12:11:13;;;;;;;17.90;4.68;;;;;;;17.10;53.65;101952.97;5033181;28;20436;-78
2023/06/02 12:13:39;;;;;;;16.83;4.40;;;;;;;17.00;53.90;101963.72;5031627;28;20026;-76
2023/06/02 12:16:19;;;;;;;16.15;4.82;;;;;;;17.02;54.55;101967.03;5034931;28;20357;-75
2023/06/02 12:18:44;;;;;;;12.75;4.22;;;;;;;17.08;54.16;101959.78;5043882;28;20060;-71
2023/06/02 12:21:27;;;;;;;16.00;4.65;;;;;;;17.45;54.24;101968.47;5031682;28;20033;-76
2023/06/02 12:23:54;;;;;;;12.45;4.00;;;;;;;17.40;53.63;101973.81;5032458;28;20029;-75
2023/06/02 12:26:20;;;;;;;16.40;4.45;;;;;;;17.39;53.29;101965.84;5031512;28;20038;-76
2023/06/02 12:28:46;;;;;;;13.15;4.55;;;;;;;17.53;52.65;101962.59;5040004;28;20480;-73
2023/06/02 12:31:11;;;;;;;11.25;4.45;;;;;;;17.70;53.11;101962.63;5052471;28;20076;-70
2023/06/02 12:33:40;;;;;;;14.57;4.45;;;;;;;17.76;52.40;101949.03;5043748;28;20414;-77
2023/06/02 12:36:07;;;;;;;10.55;3.90;;;;;;;17.98;52.33;101951.91;5045116;28;20539;-77
2023/06/02 12:38:34;;;;;;;12.13;3.95;;;;;;;18.04;52.10;101945.44;5032494;28;20067;-73
2023/06/02 12:41:00;;;;;;;15.60;4.28;;;;;;;18.19;51.96;101953.06;5048338;28;20090;-75
2023/06/02 12:43:25;;;;;;;12.50;4.43;;;;;;;18.26;51.88;101952.91;5051835;28;20040;-74
2023/06/02 12:45:50;;;;;;;14.50;3.97;;;;;;;18.41;52.46;101950.41;5049927;28;20041;-76
2023/06/02 12:48:15;;;;;;;11.82;4.13;;;;;;;18.58;52.00;101939.41;5053484;28;20361;-73
2023/06/02 12:50:41;;;;;;;14.38;4.32;;;;;;;18.78;51.34;101944.34;5045240;28;20032;-75
2023/06/02 12:53:12;;;;;;;13.77;4.70;;;;;;;18.83;51.44;101949.91;5034368;28;20033;-74
2023/06/02 12:55:38;;;;;;;14.02;4.43;;;;;;;18.35;51.09;101951.41;5031587;28;20388;-73
2023/06/02 12:58:03;;;;;;;14.20;4.72;;;;;;;18.13;51.26;101945.84;5042620;28;20183;-76
2023/06/02 13:00:30;;;;;;;11.05;4.03;;;;;;;18.16;51.92;101939.88;5050767;28;20555;-77
2023/06/02 13:02:55;;;;;;;12.77;4.63;;;;;;;18.32;51.65;101938.22;5051578;28;20029;-79
2023/06/02 13:05:21;;;;;;;14.75;4.47;;;;;;;18.04;51.67;101946.28;5051121;28;20495;-75
2023/06/02 13:07:46;;;;;;;12.93;4.20;;;;;;;17.87;52.52;101935.28;5052153;28;20033;-74
2023/06/02 13:10:12;;;;;;;13.77;5.03;;;;;;;17.89;52.13;101935.91;5050869;28;20412;-76
2023/06/02 13:12:39;;;;;;;13.40;4.72;;;;;;;18.00;52.36;101936.06;5049960;28;20243;-75
2023/06/02 13:15:05;;;;;;;15.35;4.72;;;;;;;17.92;52.22;101933.72;5050261;28;20028;-77
2023/06/02 13:17:32;;;;;;;14.45;4.45;;;;;;;18.16;53.03;101932.50;5043173;28;20622;-80
2023/06/02 13:19:57;;;;;;;11.55;4.30;;;;;;;18.46;51.88;101933.22;5050448;28;20557;-76
2023/06/02 13:22:24;;;;;;;13.30;4.88;;;;;;;18.68;51.32;101933.25;5052239;28;20033;-78
2023/06/02 13:24:50;;;;;;;13.50;3.95;;;;;;;18.94;50.89;101926.22;5051976;28;20477;-76
2023/06/02 13:27:16;;;;;;;15.02;4.45;;;;;;;19.18;50.56;101920.47;5050881;28;20059;-77
2023/06/02 13:29:41;;;;;;;14.90;4.55;;;;;;;19.19;49.20;101933.09;5050653;28;20392;-78
2023/06/02 13:32:07;;;;;;;12.52;4.53;;;;;;;19.28;49.17;101929.66;5040246;28;20099;-77
2023/06/02 13:34:32;;;;;;;17.40;4.05;;;;;;;19.58;49.33;101917.34;5046515;28;20040;-75
2023/06/02 13:36:58;;;;;;;11.07;4.00;;;;;;;19.93;48.77;101921.50;5050400;28;20033;-77
2023/06/02 13:39:23;;;;;;;12.77;4.55;;;;;;;19.67;48.02;101923.16;5044570;28;20078;-76
2023/06/02 13:41:49;;;;;;;21.20;4.40;;;;;;;19.49;48.94;101929.88;5029703;28;20079;-77
2023/06/02 13:44:18;;;;;;;11.90;4.38;;;;;;;19.40;48.49;101928.66;5035858;28;20038;-74
2023/06/02 13:46:46;;;;;;;15.13;4.60;;;;;;;19.35;48.93;101925.88;5035672;28;20487;-75
2023/06/02 13:49:12;;;;;;;15.93;4.40;;;;;;;19.48;49.12;101919.97;5035798;28;20068;-77
2023/06/02 13:51:38;;;;;;;21.17;4.88;;;;;;;19.49;49.30;101927.13;5034623;28;20518;-78
2023/06/02 13:54:04;;;;;;;16.25;4.60;;;;;;;19.37;48.64;101926.44;5035741;28;20053;-75
2023/06/02 13:56:29;;;;;;;15.45;4.50;;;;;;;19.39;48.43;101927.03;5052806;28;20079;-73
2023/06/02 13:58:54;;;;;;;15.55;5.05;;;;;;;19.64;48.79;101929.16;5053175;28;20132;-77
2023/06/02 14:01:20;;;;;;;17.92;4.90;;;;;;;19.82;48.76;101920.59;5052584;28;20029;-75
2023/06/02 14:03:45;;;;;;;16.90;4.78;;;;;;;19.57;47.91;101928.56;5054962;28;20033;-76
2023/06/02 14:06:10;;;;;;;13.77;4.32;;;;;;;19.57;48.62;101923.09;5055724;28;20032;-77
2023/06/02 14:08:35;;;;;;;11.68;4.13;;;;;;;19.87;48.21;101919.81;5055144;28;20054;-81
2023/06/02 14:11:01;;;;;;;12.55;4.90;;;;;;;20.06;47.56;101928.47;5047198;28;20033;-78
2023/06/02 14:13:26;;;;;;;12.10;4.18;;;;;;;20.11;46.87;101933.19;5055375;28;20578;-78
2023/06/02 14:15:52;;;;;;;13.35;4.28;;;;;;;20.15;47.18;101923.31;5055055;28;20025;-79
2023/06/02 14:18:18;;;;;;;17.65;4.65;;;;;;;20.25;47.21;101923.41;5055176;28;20033;-80
2023/06/02 14:20:44;;;;;;;15.30;4.50;;;;;;;20.45;46.62;101924.63;5052807;28;20132;-76
2023/06/02 14:23:10;;;;;;;17.63;4.95;;;;;;;20.52;46.47;101922.47;5051611;28;22106;-76
2023/06/02 14:25:35;;;;;;;15.05;5.15;;;;;;;20.69;46.08;101914.88;5054958;28;20041;-77
2023/06/02 14:28:01;;;;;;;14.13;4.53;;;;;;;20.69;46.09;101914.88;5054787;28;20064;-79
2023/06/02 14:30:26;;;;;;;16.90;4.40;;;;;;;20.76;45.68;101911.06;5042166;28;20040;-77
2023/06/02 14:32:51;;;;;;;16.48;4.65;;;;;;;20.56;45.62;101906.25;5033523;28;20120;-77
2023/06/02 14:35:17;;;;;;;15.95;4.57;;;;;;;20.59;46.17;101909.28;5035177;28;20055;-72
2023/06/02 14:37:42;;;;;;;15.82;4.57;;;;;;;20.71;45.76;101904.47;5034299;28;20037;-78
2023/06/02 14:40:08;;;;;;;13.25;4.63;;;;;;;20.78;45.62;101906.13;5049666;28;20083;-77
2023/06/02 14:42:33;;;;;;;18.70;4.65;;;;;;;20.62;45.21;101895.03;5055169;28;20028;-74
2023/06/02 14:44:58;;;;;;;12.55;4.50;;;;;;;20.66;46.07;101896.16;5041603;28;20029;-73
2023/06/02 14:47:24;;;;;;;19.52;4.70;;;;;;;20.75;46.80;101895.69;5051302;28;20025;-75
2023/06/02 14:49:49;;;;;;;16.90;4.60;;;;;;;20.85;46.20;101892.97;5050210;28;20029;-72
2023/06/02 14:52:14;;;;;;;17.88;4.72;;;;;;;21.01;46.22;101900.16;5040749;28;20064;-73
2023/06/02 14:54:40;;;;;;;16.38;4.70;;;;;;;21.05;46.43;101897.72;5052903;28;20029;-75
2023/06/02 14:57:06;;;;;;;11.85;3.92;;;;;;;20.89;45.68;101894.91;5054420;28;20080;-70
2023/06/02 14:59:32;;;;;;;20.55;4.55;;;;;;;20.87;45.83;101899.03;5041852;28;20029;-73
2023/06/02 15:01:57;;;;;;;18.13;5.10;;;;;;;21.03;46.33;101903.50;5043391;28;20066;-72
2023/06/02 15:04:22;;;;;;;13.15;4.15;;;;;;;20.77;46.20;101887.97;5048179;28;20022;-74
2023/06/02 15:06:47;;;;;;;12.98;4.40;;;;;;;20.94;46.90;101885.84;5044414;28;20021;-71
2023/06/02 15:09:13;;;;;;;16.35;4.57;;;;;;;21.12;46.78;101887.28;5034078;28;20155;-71
2023/06/02 15:11:38;;;;;;;14.40;4.65;;;;;;;20.93;46.14;101889.69;5050881;28;20467;-71
2023/06/02 15:14:04;;;;;;;14.48;4.55;;;;;;;20.90;46.13;101879.22;5059572;28;20054;-72
2023/06/02 15:16:29;;;;;;;15.85;4.22;;;;;;;21.14;46.48;101885.06;5047512;28;20052;-73
2023/06/02 15:18:54;;;;;;;13.25;4.95;;;;;;;21.36;45.60;101881.25;5050615;28;20029;-76
2023/06/02 15:21:20;;;;;;;15.90;4.75;;;;;;;21.35;45.50;101877.69;5035250;28;20036;-70
2023/06/02 15:23:45;;;;;;;17.33;4.68;;;;;;;21.26;44.68;101887.59;5037640;28;20731;-74
2023/06/02 15:26:10;;;;;;;18.77;4.90;;;;;;;21.37;44.74;101878.22;5047289;28;20522;-73
2023/06/02 15:28:36;;;;;;;15.30;4.68;;;;;;;21.53;44.36;101865.34;5053370;28;20021;-75
2023/06/02 15:31:01;;;;;;;10.80;3.78;;;;;;;21.61;44.66;101874.19;5050199;28;20112;-74
2023/06/02 15:33:26;;;;;;;19.37;4.70;;;;;;;21.80;44.10;101875.28;5043842;28;20120;-73
2023/06/02 15:35:52;;;;;;;17.23;4.43;;;;;;;22.04;44.19;101870.03;5048253;28;20824;-72
2023/06/02 15:38:17;;;;;;;16.20;4.82;;;;;;;22.23;43.41;101861.16;5039280;28;20282;-73
2023/06/02 15:40:42;;;;;;;16.15;4.53;;;;;;;22.42;42.57;101865.00;5051422;28;20051;-74
2023/06/02 15:43:07;;;;;;;15.13;4.47;;;;;;;22.75;42.09;101861.81;5036912;28;20445;-76
2023/06/02 15:45:33;;;;;;;13.97;4.47;;;;;;;23.22;40.70;101860.50;5038000;28;20075;-73
2023/06/02 15:47:58;;;;;;;18.07;5.23;;;;;;;23.71;39.86;101856.78;5043126;28;20295;-75
2023/06/02 15:50:23;;;;;;;17.05;5.05;;;;;;;24.16;39.33;101856.69;5044766;28;20414;-71
2023/06/02 15:52:49;;;;;;;12.68;4.00;;;;;;;24.64;38.18;101852.28;5042812;28;20057;-74
2023/06/02 15:55:14;;;;;;;15.02;4.25;;;;;;;24.77;37.45;101854.34;5052431;28;20064;-74
2023/06/02 15:57:40;;;;;;;13.15;4.50;;;;;;;24.67;37.45;101855.31;5035106;28;20083;-71
2023/06/02 16:00:07;;;;;;;15.95;8.48;;;;;;;24.05;38.14;101850.44;5031497;28;20114;-74
2023/06/02 16:02:32;;;;;;;12.82;4.63;;;;;;;23.10;40.04;101852.56;5029750;28;20465;-72
2023/06/02 16:04:58;;;;;;;17.55;4.75;;;;;;;22.44;41.38;101850.94;5031232;28;20034;-72
2023/06/02 16:07:23;;;;;;;13.65;4.22;;;;;;;22.08;41.88;101842.72;5042385;28;20033;-73
